Time;durP1;ratioP1;P1;durP2;ratioP2;P2;SDS_P1;SDS_P2;PMS_P1;PMS_P2;Temp;Humidity;BMP_temperature;BMP_pressure;BME280_temperature;BME280_humidity;BME280_pressure;Samples;Min_cycle;Max_cycle;Signal;HPM_P1;HPM_P2
2022/08/17 17:27:02;;;;;;;15.30;11.00;;;18.40;99.90;;;;;;6246989;23;20046;-88
2022/08/17 17:33:28;;;;;;;14.70;9.25;;;18.70;99.90;;;;;;5957328;24;20373;-86
2022/08/17 17:37:09;;;;;;;16.92;11.48;;;18.20;99.90;;;;;;5901611;24;20025;-87
2022/08/17 17:44:04;;;;;;;14.45;9.13;;;18.30;99.90;;;;;;5929149;24;20024;-88
2022/08/17 17:47:18;;;;;;;17.15;10.40;;;18.70;99.90;;;;;;5942940;24;20039;-87
2022/08/17 17:51:13;;;;;;;;;;;;;;;;;;;;;
2022/08/17 17:57:59;;;;;;;13.57;8.75;;;17.90;99.90;;;;;;5870483;24;20088;-86
2022/08/17 18:01:58;;;;;;;12.73;9.23;;;18.10;99.90;;;;;;6088913;23;20020;-87
2022/08/17 18:05:28;;;;;;;15.70;8.77;;;18.60;99.90;;;;;;6152005;23;20035;-90
2022/08/17 18:11:18;;;;;;;13.00;9.38;;;18.60;99.90;;;;;;6274674;22;20023;-86
2022/08/17 18:14:14;;;;;;;15.00;8.70;;;18.50;99.90;;;;;;6222857;22;20016;-85
2022/08/17 18:16:55;;;;;;;;;;;;;;;;;;;;;
2022/08/17 18:19:30;;;;;;;14.70;8.80;;;18.50;99.90;;;;;;6276751;22;20118;-86
2022/08/17 18:22:36;;;;;;;14.40;9.55;;;18.50;99.90;;;;;;6276684;22;20077;-85
2022/08/17 18:25:37;;;;;;;12.30;8.90;;;18.60;99.90;;;;;;6200390;22;20386;-85
2022/08/17 18:28:03;;;;;;;16.25;9.20;;;18.50;99.90;;;;;;6199537;22;20458;-85
2022/08/17 18:30:29;;;;;;;12.82;8.77;;;18.50;99.90;;;;;;6277357;22;20016;-85
2022/08/17 18:33:23;;;;;;;12.82;7.80;;;18.50;99.90;;;;;;6278502;22;20086;-86
2022/08/17 18:36:26;;;;;;;12.95;7.88;;;18.50;99.90;;;;;;6278803;22;20012;-87
2022/08/17 18:39:14;;;;;;;11.50;8.05;;;17.80;99.90;;;;;;6277609;22;20443;-85
2022/08/17 18:41:56;;;;;;;11.30;6.45;;;17.80;99.90;;;;;;6278436;22;20019;-88
2022/08/17 18:44:46;;;;;;;11.45;7.18;;;18.50;99.90;;;;;;6225677;22;20089;-89
2022/08/17 18:50:44;;;;;;;12.35;6.22;;;18.40;99.90;;;;;;6278578;22;20443;-92
2022/08/17 18:54:03;;;;;;;17.83;6.65;;;17.90;99.90;;;;;;6224939;22;20020;-89
2022/08/17 18:56:39;;;;;;;15.73;6.57;;;18.60;99.90;;;;;;6188185;22;20024;-86
2022/08/17 18:59:25;;;;;;;19.48;6.40;;;17.50;99.90;;;;;;6250743;22;20054;-88
2022/08/17 19:02:00;;;;;;;19.73;6.28;;;18.30;99.90;;;;;;6251011;22;20019;-86
2022/08/17 19:04:33;;;;;;;19.25;6.43;;;18.20;99.90;;;;;;6225838;22;20066;-84
2022/08/17 19:07:33;;;;;;;17.40;6.43;;;18.30;99.90;;;;;;6250152;22;20030;-87
2022/08/17 19:10:33;;;;;;;20.40;6.53;;;18.20;99.90;;;;;;6269337;22;20012;-86
2022/08/17 19:13:26;;;;;;;24.63;6.78;;;18.20;99.90;;;;;;6243582;22;20090;-85
2022/08/17 19:16:02;;;;;;;25.63;7.85;;;18.20;99.90;;;;;;6250211;22;20023;-85
2022/08/17 19:18:40;;;;;;;21.25;7.50;;;18.20;99.90;;;;;;6225713;22;20020;-84
2022/08/17 19:21:11;;;;;;;26.35;7.57;;;18.10;99.90;;;;;;6277098;22;20069;-84
2022/08/17 19:23:48;;;;;;;16.70;6.63;;;18.20;99.90;;;;;;6278278;22;20011;-86
2022/08/17 19:26:37;;;;;;;25.65;7.35;;;18.20;99.90;;;;;;6277731;22;20090;-85
2022/08/17 19:29:25;;;;;;;19.60;7.78;;;18.20;99.90;;;;;;6226179;22;20435;-86
2022/08/17 19:31:55;;;;;;;21.13;7.32;;;18.20;99.90;;;;;;6276403;22;20054;-87
2022/08/17 19:34:25;;;;;;;22.67;8.60;;;18.20;99.90;;;;;;6249610;22;20043;-87
2022/08/17 19:37:14;;;;;;;24.70;8.57;;;18.10;99.90;;;;;;6225423;22;20019;-87
2022/08/17 19:39:47;;;;;;;20.13;7.55;;;18.20;99.90;;;;;;6250585;22;20023;-87
2022/08/17 19:42:48;;;;;;;24.70;7.13;;;18.20;99.90;;;;;;6276326;22;20325;-87
2022/08/17 19:45:36;;;;;;;35.00;10.05;;;18.20;99.90;;;;;;6276713;22;20090;-86
2022/08/17 19:48:08;;;;;;;23.17;7.57;;;18.20;99.90;;;;;;6249467;22;20020;-88
2022/08/17 19:50:48;;;;;;;19.88;7.50;;;18.10;99.90;;;;;;6250805;22;20137;-86
2022/08/17 19:53:18;;;;;;;22.67;7.07;;;18.20;99.90;;;;;;6250819;22;20370;-87
2022/08/17 19:56:06;;;;;;;21.25;8.32;;;18.20;99.90;;;;;;6224131;22;20435;-85
2022/08/17 19:58:50;;;;;;;22.92;7.82;;;18.20;99.90;;;;;;6250883;22;20020;-85
2022/08/17 20:01:36;;;;;;;27.00;8.48;;;18.10;99.90;;;;;;6277589;22;20051;-85
2022/08/17 20:04:08;;;;;;;35.78;9.05;;;18.20;99.90;;;;;;6276715;22;20047;-86
2022/08/17 20:06:37;;;;;;;30.45;7.25;;;18.10;99.90;;;;;;6250916;22;20022;-85
2022/08/17 20:09:19;;;;;;;26.92;9.50;;;18.10;99.90;;;;;;6276464;22;20020;-85
2022/08/17 20:11:55;;;;;;;23.15;8.27;;;18.10;99.90;;;;;;6277887;22;20072;-86
2022/08/17 20:14:43;;;;;;;26.88;8.52;;;18.20;99.90;;;;;;6277418;22;20023;-86
2022/08/17 20:17:13;;;;;;;23.02;8.05;;;18.20;99.90;;;;;;6249696;22;20016;-85
2022/08/17 20:19:54;;;;;;;20.65;7.18;;;18.10;99.90;;;;;;6224925;22;20072;-84
2022/08/17 20:22:43;;;;;;;21.88;7.68;;;18.10;99.90;;;;;;6250818;22;20099;-86
2022/08/17 20:25:23;;;;;;;21.60;7.70;;;18.10;99.90;;;;;;6224504;22;20047;-86
2022/08/17 20:28:14;;;;;;;20.95;7.63;;;18.10;99.90;;;;;;6277659;22;20016;-86
2022/08/17 20:30:42;;;;;;;26.77;7.18;;;18.20;99.90;;;;;;6223871;22;20030;-86
2022/08/17 20:33:30;;;;;;;29.42;7.60;;;18.10;99.90;;;;;;6250235;22;20023;-86
2022/08/17 20:36:14;;;;;;;19.90;7.38;;;18.10;99.90;;;;;;6251021;22;20047;-85
2022/08/17 20:38:53;;;;;;;24.30;6.90;;;18.20;99.90;;;;;;6276367;22;20019;-85
2022/08/17 20:41:27;;;;;;;24.00;7.40;;;18.20;99.90;;;;;;6250448;22;20050;-85
2022/08/17 20:43:57;;;;;;;29.13;7.30;;;18.10;99.90;;;;;;6250091;22;20020;-86
2022/08/17 20:46:32;;;;;;;19.42;7.13;;;18.10;99.90;;;;;;6250003;22;20019;-85
2022/08/17 20:49:11;;;;;;;;;;;18.10;99.90;;;;;;6277995;22;20015;-86
2022/08/17 20:52:00;;;;;;;17.50;6.15;;;18.10;99.90;;;;;;6223633;22;19918;-85
2022/08/17 20:54:40;;;;;;;20.83;7.68;;;18.10;99.90;;;;;;6250101;22;20019;-86
2022/08/17 20:57:07;;;;;;;21.85;7.10;;;18.20;99.90;;;;;;6224685;22;20019;-86
2022/08/17 20:59:33;;;;;;;21.02;7.90;;;18.10;99.90;;;;;;6276377;22;20012;-86
2022/08/17 21:02:05;;;;;;;22.05;7.20;;;18.20;99.90;;;;;;6224943;22;20024;-86
2022/08/17 21:04:48;;;;;;;27.80;7.75;;;18.20;99.90;;;;;;6276977;22;20324;-86
2022/08/17 21:07:30;;;;;;;19.70;6.93;;;18.20;99.90;;;;;;6276025;22;20090;-86
2022/08/17 21:10:22;;;;;;;23.67;7.63;;;18.20;99.90;;;;;;6276709;22;20016;-86
2022/08/17 21:13:03;;;;;;;20.00;7.07;;;18.30;99.90;;;;;;6268944;22;20024;-86
2022/08/17 21:15:35;;;;;;;23.88;7.18;;;18.30;99.90;;;;;;6250132;22;20022;-86
2022/08/17 21:18:24;;;;;;;25.48;7.78;;;18.20;99.90;;;;;;6250707;22;20364;-85
2022/08/17 21:21:16;;;;;;;27.38;7.90;;;18.30;99.90;;;;;;6173039;22;20086;-85
2022/08/17 21:24:00;;;;;;;20.42;7.18;;;18.30;99.90;;;;;;6249840;22;20020;-85
2022/08/17 21:26:52;;;;;;;23.77;8.27;;;18.30;99.90;;;;;;6249163;22;20080;-85
2022/08/17 21:29:21;;;;;;;23.80;7.63;;;18.30;99.90;;;;;;6224623;22;20020;-85
2022/08/17 21:32:09;;;;;;;24.98;6.93;;;18.30;99.90;;;;;;6277079;22;20023;-85
2022/08/17 21:34:43;;;;;;;24.65;6.53;;;18.30;99.90;;;;;;6248704;22;20443;-86
2022/08/17 21:37:21;;;;;;;27.70;7.68;;;18.30;99.90;;;;;;6224375;22;20054;-86
2022/08/17 21:40:20;;;;;;;22.00;7.68;;;18.30;99.90;;;;;;6250132;22;20083;-86
2022/08/17 21:42:56;;;;;;;29.05;7.82;;;18.30;99.90;;;;;;6243547;22;20141;-85
2022/08/17 21:45:31;;;;;;;27.95;8.30;;;18.30;99.90;;;;;;6276664;22;20466;-86
2022/08/17 21:48:14;;;;;;;24.30;7.43;;;18.40;99.90;;;;;;6275630;22;20439;-85
2022/08/17 21:50:43;;;;;;;23.38;7.20;;;18.30;99.90;;;;;;6224303;22;20023;-86
2022/08/17 21:53:21;;;;;;;29.25;7.50;;;18.40;99.90;;;;;;6276769;22;20481;-86
2022/08/17 21:55:49;;;;;;;26.92;7.10;;;18.30;99.90;;;;;;6224120;22;20016;-86
2022/08/17 21:58:38;;;;;;;27.23;8.13;;;18.30;99.90;;;;;;6276994;22;20103;-86
2022/08/17 22:01:28;;;;;;;27.13;7.72;;;18.30;99.90;;;;;;6277031;22;20015;-85
2022/08/17 22:04:27;;;;;;;29.85;8.95;;;18.30;99.90;;;;;;6277885;22;20027;-85
2022/08/17 22:06:55;;;;;;;28.48;8.02;;;18.30;99.90;;;;;;6237380;22;20386;-86
2022/08/17 22:09:30;;;;;;;27.25;7.90;;;18.30;99.90;;;;;;6277684;22;20016;-86
2022/08/17 22:12:03;;;;;;;25.40;8.00;;;18.30;99.90;;;;;;6278990;22;20023;-86
2022/08/17 22:14:43;;;;;;;25.15;7.88;;;18.30;99.90;;;;;;6226592;22;20378;-86
2022/08/17 22:17:26;;;;;;;30.38;8.60;;;18.30;99.90;;;;;;6277826;22;20016;-86
2022/08/17 22:20:00;;;;;;;26.90;7.72;;;18.40;99.90;;;;;;6278406;22;20454;-86
2022/08/17 22:22:31;;;;;;;27.42;7.97;;;18.40;99.90;;;;;;6250865;22;20019;-86
2022/08/17 22:25:05;;;;;;;28.55;8.35;;;18.40;99.90;;;;;;6251323;22;20490;-86
2022/08/17 22:27:53;;;;;;;27.48;8.20;;;18.30;99.90;;;;;;6251856;22;20011;-86
2022/08/17 22:30:33;;;;;;;26.98;8.00;;;18.30;99.90;;;;;;6225012;22;20020;-86
2022/08/17 22:33:20;;;;;;;25.77;8.75;;;18.60;99.90;;;;;;6278789;22;20057;-86
2022/08/17 22:35:46;;;;;;;24.10;8.13;;;18.40;99.90;;;;;;6251236;22;20018;-86
2022/08/17 22:38:18;;;;;;;23.52;8.18;;;18.30;99.90;;;;;;6250790;22;20015;-86
2022/08/17 22:41:13;;;;;;;29.13;8.40;;;18.40;99.90;;;;;;6225784;22;20016;-86
2022/08/17 22:43:40;;;;;;;34.95;8.18;;;18.30;99.90;;;;;;6250173;22;20016;-85
2022/08/17 22:46:09;;;;;;;24.88;8.32;;;18.30;99.90;;;;;;6251187;22;20096;-86
2022/08/17 22:48:35;;;;;;;29.85;8.50;;;18.30;99.90;;;;;;6278369;22;20050;-86
2022/08/17 22:51:12;;;;;;;32.30;10.05;;;18.40;99.90;;;;;;6277619;22;20023;-86
2022/08/17 22:59:48;;;;;;;32.25;9.27;;;18.30;99.90;;;;;;6277076;22;20455;-85
2022/08/17 23:02:19;;;;;;;39.55;9.70;;;18.30;99.90;;;;;;6251153;22;20020;-86
2022/08/17 23:04:50;;;;;;;27.98;8.45;;;18.30;99.90;;;;;;6249881;22;20026;-86
2022/08/17 23:07:16;;;;;;;29.55;9.05;;;18.30;99.90;;;;;;6278015;22;20020;-86
2022/08/17 23:09:43;;;;;;;21.50;8.48;;;18.30;99.90;;;;;;6277883;22;20026;-86
2022/08/17 23:12:14;;;;;;;24.70;9.32;;;18.40;99.90;;;;;;6277375;22;20409;-86
2022/08/17 23:14:44;;;;;;;25.95;8.85;;;18.40;99.90;;;;;;6251237;22;20016;-86
2022/08/17 23:17:11;;;;;;;19.88;7.82;;;18.30;99.90;;;;;;6250856;22;20435;-86
2022/08/17 23:19:37;;;;;;;29.42;10.05;;;18.30;99.90;;;;;;6249980;22;20023;-86
2022/08/17 23:22:06;;;;;;;28.27;9.05;;;18.30;99.90;;;;;;6250700;22;20090;-86
2022/08/17 23:24:38;;;;;;;39.40;11.48;;;18.40;99.90;;;;;;6278178;22;20335;-86
2022/08/17 23:27:06;;;;;;;34.45;11.35;;;18.30;99.90;;;;;;6250317;22;20015;-86
2022/08/17 23:29:33;;;;;;;22.60;9.75;;;18.40;99.90;;;;;;6278000;22;20023;-86
2022/08/17 23:32:02;;;;;;;21.20;9.55;;;18.30;99.90;;;;;;6277781;22;20467;-86
2022/08/17 23:34:28;;;;;;;21.52;10.15;;;18.30;99.90;;;;;;6277000;22;20023;-86
2022/08/17 23:36:55;;;;;;;24.48;9.35;;;18.30;99.90;;;;;;6250598;22;20019;-86
2022/08/17 23:39:22;;;;;;;23.67;10.27;;;18.30;99.90;;;;;;6225408;22;20016;-86
2022/08/17 23:41:52;;;;;;;29.17;10.07;;;18.30;99.90;;;;;;6276886;22;20109;-86
2022/08/17 23:44:22;;;;;;;35.05;10.80;;;18.40;99.90;;;;;;6278067;22;20019;-85
2022/08/17 23:46:49;;;;;;;33.42;11.73;;;18.40;99.90;;;;;;6224663;22;20035;-86
2022/08/17 23:49:15;;;;;;;21.55;10.25;;;18.40;99.90;;;;;;6250757;22;20431;-86
2022/08/17 23:51:42;;;;;;;25.00;10.57;;;18.40;99.90;;;;;;6250624;22;20051;-85
2022/08/17 23:54:25;;;;;;;21.00;9.75;;;18.40;99.90;;;;;;6249606;22;20024;-85
2022/08/17 23:56:51;;;;;;;32.88;11.10;;;18.40;99.90;;;;;;6278048;22;20074;-85
2022/08/17 23:59:19;;;;;;;25.45;10.27;;;18.30;99.90;;;;;;6250320;22;20015;-86
